sensor_id;sensor_type;location;lat;lon;timestamp;pressure;altitude;pressure_sealevel;temperature;humidity
68994;BME280;56054;50.968;5.816;2024-03-22T00:02:14;100722.41;;;9.05;100.00
68994;BME280;56054;50.968;5.816;2024-03-22T00:05:21;100724.31;;;9.08;100.00
68994;BME280;56054;50.968;5.816;2024-03-22T00:08:28;100710.44;;;9.07;100.00
68994;BME280;56054;50.968;5.816;2024-03-22T00:11:35;100715.72;;;9.09;100.00
68994;BME280;56054;50.968;5.816;2024-03-22T00:14:42;100712.56;;;9.13;100.00
68994;BME280;56054;50.968;5.816;2024-03-22T00:17:49;100713.94;;;9.08;100.00
68994;BME280;56054;50.968;5.816;2024-03-22T00:20:56;100697.56;;;9.09;100.00
68994;BME280;56054;50.968;5.816;2024-03-22T00:24:03;100699.69;;;9.14;100.00
68994;BME280;56054;50.968;5.816;2024-03-22T00:27:10;100689.81;;;9.09;100.00
68994;BME280;56054;50.968;5.816;2024-03-22T00:30:17;100681.13;;;9.08;100.00
68994;BME280;56054;50.968;5.816;2024-03-22T00:33:24;100679.13;;;9.04;100.00
68994;BME280;56054;50.968;5.816;2024-03-22T00:36:31;100677.72;;;9.09;100.00
68994;BME280;56054;50.968;5.816;2024-03-22T00:39:38;100672.03;;;9.02;100.00
68994;BME280;56054;50.968;5.816;2024-03-22T00:42:45;100668.16;;;8.95;100.00
68994;BME280;56054;50.968;5.816;2024-03-22T00:45:52;100663.16;;;8.98;100.00
68994;BME280;56054;50.968;5.816;2024-03-22T00:48:59;100661.78;;;9.03;100.00
68994;BME280;56054;50.968;5.816;2024-03-22T00:52:06;100664.06;;;8.98;100.00
68994;BME280;56054;50.968;5.816;2024-03-22T00:55:13;100663.63;;;8.92;100.00
68994;BME280;56054;50.968;5.816;2024-03-22T00:58:20;100658.44;;;8.92;100.00
68994;BME280;56054;50.968;5.816;2024-03-22T01:01:27;100657.34;;;8.89;100.00
68994;BME280;56054;50.968;5.816;2024-03-22T01:04:34;100650.66;;;8.92;100.00
68994;BME280;56054;50.968;5.816;2024-03-22T01:07:41;100657.28;;;9.00;100.00
68994;BME280;56054;50.968;5.816;2024-03-22T01:10:48;100656.97;;;8.96;100.00
68994;BME280;56054;50.968;5.816;2024-03-22T01:13:55;100661.25;;;8.95;100.00
68994;BME280;56054;50.968;5.816;2024-03-22T01:17:02;100648.00;;;9.04;100.00
68994;BME280;56054;50.968;5.816;2024-03-22T01:20:10;100638.84;;;8.96;100.00
68994;BME280;56054;50.968;5.816;2024-03-22T01:23:17;100646.72;;;8.97;100.00
68994;BME280;56054;50.968;5.816;2024-03-22T01:26:24;100644.91;;;8.96;100.00
68994;BME280;56054;50.968;5.816;2024-03-22T01:29:31;100635.56;;;8.98;100.00
68994;BME280;56054;50.968;5.816;2024-03-22T01:32:38;100623.78;;;8.90;100.00
68994;BME280;56054;50.968;5.816;2024-03-22T01:35:45;100620.38;;;8.91;100.00
68994;BME280;56054;50.968;5.816;2024-03-22T01:38:52;100614.19;;;8.89;100.00
68994;BME280;56054;50.968;5.816;2024-03-22T01:41:59;100611.78;;;8.92;100.00
68994;BME280;56054;50.968;5.816;2024-03-22T01:45:06;100606.63;;;8.92;100.00
68994;BME280;56054;50.968;5.816;2024-03-22T01:48:13;100609.91;;;8.90;100.00
68994;BME280;56054;50.968;5.816;2024-03-22T01:51:20;100589.88;;;8.87;100.00
68994;BME280;56054;50.968;5.816;2024-03-22T01:54:27;100596.78;;;9.00;100.00
68994;BME280;56054;50.968;5.816;2024-03-22T01:57:35;100591.28;;;8.95;100.00
68994;BME280;56054;50.968;5.816;2024-03-22T02:00:46;100587.50;;;8.90;100.00
68994;BME280;56054;50.968;5.816;2024-03-22T02:03:53;100582.72;;;8.96;100.00
68994;BME280;56054;50.968;5.816;2024-03-22T02:07:00;100569.94;;;8.99;100.00
68994;BME280;56054;50.968;5.816;2024-03-22T02:10:08;100565.38;;;8.95;100.00
68994;BME280;56054;50.968;5.816;2024-03-22T02:13:15;100553.31;;;8.96;100.00
68994;BME280;56054;50.968;5.816;2024-03-22T02:16:22;100569.56;;;8.93;100.00
68994;BME280;56054;50.968;5.816;2024-03-22T02:19:29;100570.25;;;9.04;100.00
68994;BME280;56054;50.968;5.816;2024-03-22T02:22:36;100568.78;;;9.08;100.00
68994;BME280;56054;50.968;5.816;2024-03-22T02:25:43;100574.47;;;9.15;100.00
68994;BME280;56054;50.968;5.816;2024-03-22T02:28:50;100557.09;;;9.14;100.00
68994;BME280;56054;50.968;5.816;2024-03-22T02:31:57;100550.44;;;9.18;100.00
68994;BME280;56054;50.968;5.816;2024-03-22T02:35:04;100544.88;;;9.25;100.00
68994;BME280;56054;50.968;5.816;2024-03-22T02:38:11;100544.88;;;9.25;100.00
68994;BME280;56054;50.968;5.816;2024-03-22T02:41:18;100546.94;;;9.31;100.00
68994;BME280;56054;50.968;5.816;2024-03-22T02:44:25;100546.25;;;9.33;100.00
68994;BME280;56054;50.968;5.816;2024-03-22T02:47:32;100544.66;;;9.35;100.00
68994;BME280;56054;50.968;5.816;2024-03-22T02:50:39;100537.88;;;9.37;100.00
68994;BME280;56054;50.968;5.816;2024-03-22T02:53:46;100530.50;;;9.30;100.00
68994;BME280;56054;50.968;5.816;2024-03-22T02:56:53;100533.50;;;9.36;100.00
68994;BME280;56054;50.968;5.816;2024-03-22T03:00:00;100527.31;;;9.34;100.00
68994;BME280;56054;50.968;5.816;2024-03-22T03:03:07;100522.22;;;9.36;100.00
68994;BME280;56054;50.968;5.816;2024-03-22T03:06:14;100523.13;;;9.36;100.00
68994;BME280;56054;50.968;5.816;2024-03-22T03:09:21;100515.53;;;9.39;100.00
68994;BME280;56054;50.968;5.816;2024-03-22T03:12:28;100511.38;;;9.41;100.00
68994;BME280;56054;50.968;5.816;2024-03-22T03:15:35;100499.56;;;9.33;100.00
68994;BME280;56054;50.968;5.816;2024-03-22T03:18:42;100502.16;;;9.33;100.00
68994;BME280;56054;50.968;5.816;2024-03-22T03:21:49;100494.19;;;9.30;100.00
68994;BME280;56054;50.968;5.816;2024-03-22T03:24:56;100496.69;;;9.29;100.00
68994;BME280;56054;50.968;5.816;2024-03-22T03:28:03;100500.59;;;9.22;100.00
68994;BME280;56054;50.968;5.816;2024-03-22T03:31:10;100504.97;;;9.23;100.00
68994;BME280;56054;50.968;5.816;2024-03-22T03:34:17;100492.81;;;9.22;100.00
68994;BME280;56054;50.968;5.816;2024-03-22T03:37:24;100492.53;;;9.17;100.00
68994;BME280;56054;50.968;5.816;2024-03-22T03:40:31;100495.41;;;9.22;100.00
68994;BME280;56054;50.968;5.816;2024-03-22T03:43:38;100492.03;;;9.10;100.00
68994;BME280;56054;50.968;5.816;2024-03-22T03:46:45;100488.94;;;9.15;100.00
68994;BME280;56054;50.968;5.816;2024-03-22T03:49:52;100487.56;;;9.07;100.00
68994;BME280;56054;50.968;5.816;2024-03-22T03:52:59;100476.19;;;9.05;100.00
68994;BME280;56054;50.968;5.816;2024-03-22T03:56:06;100473.88;;;9.10;100.00
68994;BME280;56054;50.968;5.816;2024-03-22T03:59:13;100466.13;;;9.10;100.00
68994;BME280;56054;50.968;5.816;2024-03-22T04:02:20;100466.91;;;9.09;100.00
68994;BME280;56054;50.968;5.816;2024-03-22T04:05:27;100460.72;;;9.07;100.00
68994;BME280;56054;50.968;5.816;2024-03-22T04:08:34;100456.44;;;9.07;100.00
68994;BME280;56054;50.968;5.816;2024-03-22T04:11:41;100442.69;;;9.08;100.00
68994;BME280;56054;50.968;5.816;2024-03-22T04:14:48;100429.59;;;9.07;100.00
68994;BME280;56054;50.968;5.816;2024-03-22T04:17:56;100426.06;;;9.05;100.00
68994;BME280;56054;50.968;5.816;2024-03-22T04:21:03;100427.13;;;9.08;100.00
68994;BME280;56054;50.968;5.816;2024-03-22T04:24:10;100427.00;;;9.07;100.00
68994;BME280;56054;50.968;5.816;2024-03-22T04:27:17;100421.25;;;9.11;100.00
68994;BME280;56054;50.968;5.816;2024-03-22T04:30:24;100423.03;;;9.12;100.00
68994;BME280;56054;50.968;5.816;2024-03-22T04:33:32;100423.94;;;9.12;100.00
68994;BME280;56054;50.968;5.816;2024-03-22T04:36:39;100411.94;;;9.14;100.00
68994;BME280;56054;50.968;5.816;2024-03-22T04:39:46;100410.47;;;9.18;100.00
68994;BME280;56054;50.968;5.816;2024-03-22T04:42:53;100406.09;;;9.17;100.00
68994;BME280;56054;50.968;5.816;2024-03-22T04:46:00;100404.28;;;9.16;100.00
68994;BME280;56054;50.968;5.816;2024-03-22T04:49:07;100392.22;;;9.16;100.00
68994;BME280;56054;50.968;5.816;2024-03-22T04:52:14;100397.63;;;9.19;100.00
68994;BME280;56054;50.968;5.816;2024-03-22T04:55:21;100381.94;;;9.18;100.00
68994;BME280;56054;50.968;5.816;2024-03-22T04:58:28;100385.53;;;9.20;100.00
68994;BME280;56054;50.968;5.816;2024-03-22T05:01:35;100395.72;;;9.17;100.00
68994;BME280;56054;50.968;5.816;2024-03-22T05:04:42;100395.19;;;9.23;100.00
68994;BME280;56054;50.968;5.816;2024-03-22T05:07:49;100388.22;;;9.21;100.00
68994;BME280;56054;50.968;5.816;2024-03-22T05:10:56;100389.13;;;9.22;100.00
68994;BME280;56054;50.968;5.816;2024-03-22T05:14:03;100379.13;;;9.28;100.00
68994;BME280;56054;50.968;5.816;2024-03-22T05:17:10;100377.13;;;9.24;100.00
68994;BME280;56054;50.968;5.816;2024-03-22T05:20:17;100377.34;;;9.27;100.00
68994;BME280;56054;50.968;5.816;2024-03-22T05:23:24;100375.03;;;9.32;100.00
68994;BME280;56054;50.968;5.816;2024-03-22T05:26:31;100365.38;;;9.29;100.00
68994;BME280;56054;50.968;5.816;2024-03-22T05:29:38;100369.66;;;9.29;100.00
68994;BME280;56054;50.968;5.816;2024-03-22T05:32:45;100367.16;;;9.30;100.00
68994;BME280;56054;50.968;5.816;2024-03-22T05:35:53;100374.34;;;9.34;100.00
68994;BME280;56054;50.968;5.816;2024-03-22T05:39:06;100370.81;;;9.34;100.00
68994;BME280;56054;50.968;5.816;2024-03-22T05:42:13;100367.16;;;9.30;100.00
68994;BME280;56054;50.968;5.816;2024-03-22T05:45:20;100372.75;;;9.36;100.00
68994;BME280;56054;50.968;5.816;2024-03-22T05:48:27;100370.56;;;9.29;100.00
68994;BME280;56054;50.968;5.816;2024-03-22T05:51:34;100375.75;;;9.29;100.00
68994;BME280;56054;50.968;5.816;2024-03-22T05:54:41;100377.00;;;9.36;100.00
68994;BME280;56054;50.968;5.816;2024-03-22T05:57:49;100370.16;;;9.36;100.00
68994;BME280;56054;50.968;5.816;2024-03-22T06:00:55;100363.25;;;9.37;100.00
68994;BME280;56054;50.968;5.816;2024-03-22T06:04:02;100364.16;;;9.37;100.00
68994;BME280;56054;50.968;5.816;2024-03-22T06:07:09;100362.56;;;9.39;100.00
68994;BME280;56054;50.968;5.816;2024-03-22T06:10:16;100353.06;;;9.40;100.00
68994;BME280;56054;50.968;5.816;2024-03-22T06:13:24;100354.84;;;9.41;100.00
68994;BME280;56054;50.968;5.816;2024-03-22T06:16:30;100354.94;;;9.42;100.00
68994;BME280;56054;50.968;5.816;2024-03-22T06:19:37;100351.75;;;9.47;100.00
68994;BME280;56054;50.968;5.816;2024-03-22T06:22:44;100346.56;;;9.47;100.00
68994;BME280;56054;50.968;5.816;2024-03-22T06:25:55;100361.50;;;9.51;100.00
68994;BME280;56054;50.968;5.816;2024-03-22T06:29:02;100364.06;;;9.64;100.00
68994;BME280;56054;50.968;5.816;2024-03-22T06:32:09;100362.13;;;9.47;100.00
68994;BME280;56054;50.968;5.816;2024-03-22T06:35:16;100371.69;;;9.48;100.00
68994;BME280;56054;50.968;5.816;2024-03-22T06:38:23;100355.94;;;9.45;100.00
68994;BME280;56054;50.968;5.816;2024-03-22T06:41:30;100348.75;;;9.54;100.00
68994;BME280;56054;50.968;5.816;2024-03-22T06:44:37;100358.13;;;9.52;100.00
68994;BME280;56054;50.968;5.816;2024-03-22T06:47:44;100353.81;;;9.52;100.00
68994;BME280;56054;50.968;5.816;2024-03-22T06:50:51;100353.09;;;9.55;100.00
68994;BME280;56054;50.968;5.816;2024-03-22T06:53:58;100348.75;;;9.54;100.00
68994;BME280;56054;50.968;5.816;2024-03-22T06:57:05;100351.69;;;9.60;100.00
68994;BME280;56054;50.968;5.816;2024-03-22T07:00:13;100340.41;;;9.59;100.00
68994;BME280;56054;50.968;5.816;2024-03-22T07:03:20;100334.53;;;9.62;100.00
68994;BME280;56054;50.968;5.816;2024-03-22T07:06:28;100330.94;;;9.60;100.00
68994;BME280;56054;50.968;5.816;2024-03-22T07:09:34;100327.72;;;9.64;100.00
68994;BME280;56054;50.968;5.816;2024-03-22T07:12:41;100341.69;;;9.66;100.00
68994;BME280;56054;50.968;5.816;2024-03-22T07:15:48;100340.00;;;9.67;100.00
68994;BME280;56054;50.968;5.816;2024-03-22T07:18:55;100333.53;;;9.60;100.00
68994;BME280;56054;50.968;5.816;2024-03-22T07:22:02;100331.22;;;9.64;100.00
68994;BME280;56054;50.968;5.816;2024-03-22T07:25:09;100338.19;;;9.65;100.00
68994;BME280;56054;50.968;5.816;2024-03-22T07:28:23;100337.13;;;9.62;100.00
68994;BME280;56054;50.968;5.816;2024-03-22T07:31:30;100334.41;;;9.60;100.00
68994;BME280;56054;50.968;5.816;2024-03-22T07:34:37;100338.66;;;9.58;100.00
68994;BME280;56054;50.968;5.816;2024-03-22T07:37:44;100336.31;;;9.63;100.00
68994;BME280;56054;50.968;5.816;2024-03-22T07:40:51;100331.94;;;9.62;100.00
68994;BME280;56054;50.968;5.816;2024-03-22T07:43:59;100326.13;;;9.66;100.00
68994;BME280;56054;50.968;5.816;2024-03-22T07:47:06;100326.66;;;9.75;100.00
68994;BME280;56054;50.968;5.816;2024-03-22T07:50:13;100328.38;;;9.75;100.00
68994;BME280;56054;50.968;5.816;2024-03-22T07:53:20;100317.34;;;9.64;100.00
68994;BME280;56054;50.968;5.816;2024-03-22T07:56:27;100309.50;;;9.77;100.00
68994;BME280;56054;50.968;5.816;2024-03-22T07:59:34;100319.41;;;9.70;100.00
68994;BME280;56054;50.968;5.816;2024-03-22T08:02:41;100312.78;;;9.75;100.00
68994;BME280;56054;50.968;5.816;2024-03-22T08:05:48;100313.88;;;9.78;100.00
68994;BME280;56054;50.968;5.816;2024-03-22T08:08:55;100315.59;;;9.78;100.00
68994;BME280;56054;50.968;5.816;2024-03-22T08:12:02;100307.00;;;9.79;100.00
68994;BME280;56054;50.968;5.816;2024-03-22T08:15:09;100304.56;;;9.82;100.00
68994;BME280;56054;50.968;5.816;2024-03-22T08:18:16;100303.25;;;9.89;100.00
68994;BME280;56054;50.968;5.816;2024-03-22T08:21:24;100307.09;;;9.95;100.00
68994;BME280;56054;50.968;5.816;2024-03-22T08:24:31;100319.69;;;10.04;100.00
68994;BME280;56054;50.968;5.816;2024-03-22T08:27:38;100310.03;;;10.01;100.00
68994;BME280;56054;50.968;5.816;2024-03-22T08:30:45;100314.06;;;9.96;100.00
68994;BME280;56054;50.968;5.816;2024-03-22T08:33:52;100310.75;;;9.99;100.00
68994;BME280;56054;50.968;5.816;2024-03-22T08:36:59;100326.25;;;10.12;100.00
68994;BME280;56054;50.968;5.816;2024-03-22T08:40:07;100312.75;;;10.03;100.00
68994;BME280;56054;50.968;5.816;2024-03-22T08:43:13;100316.75;;;10.13;100.00
68994;BME280;56054;50.968;5.816;2024-03-22T08:46:20;100305.06;;;10.34;100.00
68994;BME280;56054;50.968;5.816;2024-03-22T08:49:27;100307.72;;;10.36;100.00
68994;BME280;56054;50.968;5.816;2024-03-22T08:52:34;100313.44;;;10.45;100.00
68994;BME280;56054;50.968;5.816;2024-03-22T08:55:48;100319.00;;;10.36;100.00
68994;BME280;56054;50.968;5.816;2024-03-22T08:58:55;100316.88;;;10.44;100.00
68994;BME280;56054;50.968;5.816;2024-03-22T09:02:02;100313.25;;;10.57;100.00
68994;BME280;56054;50.968;5.816;2024-03-22T09:05:09;100312.22;;;10.69;100.00
68994;BME280;56054;50.968;5.816;2024-03-22T09:08:16;100313.59;;;10.48;100.00
68994;BME280;56054;50.968;5.816;2024-03-22T09:11:26;100304.97;;;10.33;100.00
68994;BME280;56054;50.968;5.816;2024-03-22T09:14:33;100311.38;;;10.24;100.00
68994;BME280;56054;50.968;5.816;2024-03-22T09:17:40;100306.72;;;10.34;100.00
68994;BME280;56054;50.968;5.816;2024-03-22T09:20:47;100297.53;;;10.39;100.00
68994;BME280;56054;50.968;5.816;2024-03-22T09:23:54;100302.69;;;10.54;100.00
68994;BME280;56054;50.968;5.816;2024-03-22T09:27:01;100289.81;;;10.40;100.00
68994;BME280;56054;50.968;5.816;2024-03-22T09:30:09;100289.72;;;10.54;100.00
68994;BME280;56054;50.968;5.816;2024-03-22T09:33:15;100291.06;;;10.47;100.00
68994;BME280;56054;50.968;5.816;2024-03-22T09:36:22;100291.69;;;10.43;100.00
68994;BME280;56054;50.968;5.816;2024-03-22T09:39:29;100292.38;;;10.55;100.00
68994;BME280;56054;50.968;5.816;2024-03-22T09:42:38;100293.34;;;10.57;100.00
68994;BME280;56054;50.968;5.816;2024-03-22T09:45:45;100291.25;;;10.35;100.00
68994;BME280;56054;50.968;5.816;2024-03-22T09:48:53;100291.50;;;10.40;100.00
68994;BME280;56054;50.968;5.816;2024-03-22T09:52:01;100284.53;;;10.39;100.00
68994;BME280;56054;50.968;5.816;2024-03-22T09:55:08;100283.16;;;10.45;100.00
68994;BME280;56054;50.968;5.816;2024-03-22T09:58:16;100286.59;;;10.44;100.00
68994;BME280;56054;50.968;5.816;2024-03-22T10:01:23;100284.50;;;10.54;100.00
68994;BME280;56054;50.968;5.816;2024-03-22T10:04:30;100289.13;;;10.59;100.00
68994;BME280;56054;50.968;5.816;2024-03-22T10:07:38;100276.16;;;10.59;100.00
68994;BME280;56054;50.968;5.816;2024-03-22T10:10:46;100269.19;;;10.43;100.00
68994;BME280;56054;50.968;5.816;2024-03-22T10:13:52;100267.25;;;10.24;100.00
68994;BME280;56054;50.968;5.816;2024-03-22T10:16:59;100264.84;;;10.13;100.00
68994;BME280;56054;50.968;5.816;2024-03-22T10:20:06;100255.06;;;10.23;100.00
68994;BME280;56054;50.968;5.816;2024-03-22T10:23:14;100259.03;;;10.32;100.00
68994;BME280;56054;50.968;5.816;2024-03-22T10:26:21;100255.00;;;10.53;100.00
68994;BME280;56054;50.968;5.816;2024-03-22T10:29:28;100253.50;;;10.57;100.00
68994;BME280;56054;50.968;5.816;2024-03-22T10:32:36;100249.22;;;10.74;100.00
68994;BME280;56054;50.968;5.816;2024-03-22T10:35:43;100237.28;;;10.77;100.00
68994;BME280;56054;50.968;5.816;2024-03-22T10:38:51;100245.00;;;10.76;100.00
68994;BME280;56054;50.968;5.816;2024-03-22T10:41:59;100253.81;;;10.46;100.00
68994;BME280;56054;50.968;5.816;2024-03-22T10:45:12;100235.31;;;10.57;100.00
68994;BME280;56054;50.968;5.816;2024-03-22T10:48:19;100239.97;;;10.79;100.00
68994;BME280;56054;50.968;5.816;2024-03-22T10:51:27;100240.22;;;10.83;100.00
68994;BME280;56054;50.968;5.816;2024-03-22T10:54:39;100239.81;;;10.76;100.00
68994;BME280;56054;50.968;5.816;2024-03-22T10:57:47;100238.22;;;10.63;100.00
68994;BME280;56054;50.968;5.816;2024-03-22T11:00:55;100231.81;;;10.56;100.00
68994;BME280;56054;50.968;5.816;2024-03-22T11:04:03;100225.25;;;10.63;100.00
68994;BME280;56054;50.968;5.816;2024-03-22T11:07:20;100223.00;;;10.69;100.00
68994;BME280;56054;50.968;5.816;2024-03-22T11:10:30;100221.16;;;10.83;100.00
68994;BME280;56054;50.968;5.816;2024-03-22T11:13:39;100215.94;;;10.66;100.00
68994;BME280;56054;50.968;5.816;2024-03-22T11:16:46;100221.75;;;10.62;100.00
68994;BME280;56054;50.968;5.816;2024-03-22T11:19:53;100231.06;;;10.90;100.00
68994;BME280;56054;50.968;5.816;2024-03-22T11:23:00;100223.31;;;10.91;100.00
68994;BME280;56054;50.968;5.816;2024-03-22T11:26:07;100219.00;;;10.92;100.00
68994;BME280;56054;50.968;5.816;2024-03-22T11:29:14;100217.25;;;10.91;100.00
68994;BME280;56054;50.968;5.816;2024-03-22T11:32:21;100209.78;;;10.81;100.00
68994;BME280;56054;50.968;5.816;2024-03-22T11:35:28;100217.22;;;10.75;100.00
68994;BME280;56054;50.968;5.816;2024-03-22T11:38:35;100231.16;;;10.60;100.00
68994;BME280;56054;50.968;5.816;2024-03-22T11:41:44;100222.09;;;10.85;100.00
68994;BME280;56054;50.968;5.816;2024-03-22T11:44:51;100207.06;;;10.79;100.00
68994;BME280;56054;50.968;5.816;2024-03-22T11:48:01;100209.34;;;10.89;100.00
68994;BME280;56054;50.968;5.816;2024-03-22T11:51:08;100211.47;;;10.97;100.00
68994;BME280;56054;50.968;5.816;2024-03-22T11:54:15;100205.88;;;10.89;100.00
68994;BME280;56054;50.968;5.816;2024-03-22T11:57:26;100206.66;;;11.04;100.00
68994;BME280;56054;50.968;5.816;2024-03-22T12:00:32;100192.06;;;10.90;100.00
68994;BME280;56054;50.968;5.816;2024-03-22T12:03:39;100200.97;;;11.11;100.00
68994;BME280;56054;50.968;5.816;2024-03-22T12:06:46;100200.91;;;10.93;100.00
68994;BME280;56054;50.968;5.816;2024-03-22T12:09:53;100185.22;;;10.92;100.00
68994;BME280;56054;50.968;5.816;2024-03-22T12:13:07;100183.41;;;11.24;100.00
68994;BME280;56054;50.968;5.816;2024-03-22T12:16:14;100168.84;;;10.93;100.00
68994;BME280;56054;50.968;5.816;2024-03-22T12:19:21;100163.78;;;11.12;100.00
68994;BME280;56054;50.968;5.816;2024-03-22T12:22:28;100160.34;;;10.97;100.00
68994;BME280;56054;50.968;5.816;2024-03-22T12:25:35;100165.84;;;10.85;100.00
68994;BME280;56054;50.968;5.816;2024-03-22T12:28:42;100158.09;;;10.87;100.00
68994;BME280;56054;50.968;5.816;2024-03-22T12:31:50;100161.69;;;10.89;100.00
68994;BME280;56054;50.968;5.816;2024-03-22T12:34:57;100144.38;;;11.06;100.00
68994;BME280;56054;50.968;5.816;2024-03-22T12:38:04;100133.56;;;10.82;100.00
68994;BME280;56054;50.968;5.816;2024-03-22T12:41:11;100147.53;;;10.67;100.00
68994;BME280;56054;50.968;5.816;2024-03-22T12:44:18;100136.66;;;10.75;100.00
68994;BME280;56054;50.968;5.816;2024-03-22T12:47:25;100133.19;;;10.90;100.00
68994;BME280;56054;50.968;5.816;2024-03-22T12:50:32;100122.97;;;11.11;100.00
68994;BME280;56054;50.968;5.816;2024-03-22T12:53:40;100113.56;;;10.97;100.00
68994;BME280;56054;50.968;5.816;2024-03-22T12:56:47;100135.53;;;10.86;100.00
68994;BME280;56054;50.968;5.816;2024-03-22T12:59:53;100116.94;;;10.78;100.00
68994;BME280;56054;50.968;5.816;2024-03-22T13:03:00;100104.63;;;11.08;100.00
68994;BME280;56054;50.968;5.816;2024-03-22T13:06:07;100109.69;;;11.05;100.00
68994;BME280;56054;50.968;5.816;2024-03-22T13:09:14;100100.78;;;11.18;100.00
68994;BME280;56054;50.968;5.816;2024-03-22T13:12:21;100101.44;;;11.14;100.00
68994;BME280;56054;50.968;5.816;2024-03-22T13:15:28;100109.47;;;11.19;100.00
68994;BME280;56054;50.968;5.816;2024-03-22T13:18:35;100096.25;;;11.14;100.00
68994;BME280;56054;50.968;5.816;2024-03-22T13:21:42;100106.94;;;11.02;100.00
68994;BME280;56054;50.968;5.816;2024-03-22T13:24:49;100089.84;;;10.57;100.00
68994;BME280;56054;50.968;5.816;2024-03-22T13:27:56;100097.69;;;10.75;100.00
68994;BME280;56054;50.968;5.816;2024-03-22T13:31:04;100077.16;;;10.79;100.00
68994;BME280;56054;50.968;5.816;2024-03-22T13:34:11;100083.56;;;10.69;100.00
68994;BME280;56054;50.968;5.816;2024-03-22T13:37:19;100058.06;;;10.62;100.00
68994;BME280;56054;50.968;5.816;2024-03-22T13:40:26;100071.81;;;10.60;100.00
68994;BME280;56054;50.968;5.816;2024-03-22T13:43:32;100068.81;;;10.68;100.00
68994;BME280;56054;50.968;5.816;2024-03-22T13:46:39;100065.00;;;10.62;100.00
68994;BME280;56054;50.968;5.816;2024-03-22T13:49:46;100055.56;;;10.64;100.00
68994;BME280;56054;50.968;5.816;2024-03-22T13:52:53;100054.44;;;10.59;100.00
68994;BME280;56054;50.968;5.816;2024-03-22T13:56:00;100056.81;;;10.54;100.00
68994;BME280;56054;50.968;5.816;2024-03-22T13:59:08;100050.13;;;10.43;100.00
68994;BME280;56054;50.968;5.816;2024-03-22T14:02:14;100042.03;;;10.37;100.00
68994;BME280;56054;50.968;5.816;2024-03-22T14:05:22;100044.16;;;10.44;100.00
68994;BME280;56054;50.968;5.816;2024-03-22T14:08:28;100055.56;;;10.31;100.00
68994;BME280;56054;50.968;5.816;2024-03-22T14:11:36;100043.72;;;10.20;100.00
68994;BME280;56054;50.968;5.816;2024-03-22T14:14:42;100035.44;;;10.27;100.00
68994;BME280;56054;50.968;5.816;2024-03-22T14:17:49;100028.91;;;10.19;100.00
68994;BME280;56054;50.968;5.816;2024-03-22T14:20:56;100022.22;;;10.22;100.00
68994;BME280;56054;50.968;5.816;2024-03-22T14:24:04;100021.38;;;9.91;100.00
68994;BME280;56054;50.968;5.816;2024-03-22T14:27:10;100026.31;;;10.19;100.00
68994;BME280;56054;50.968;5.816;2024-03-22T14:30:17;100019.50;;;10.04;100.00
68994;BME280;56054;50.968;5.816;2024-03-22T14:33:24;100008.09;;;10.01;100.00
68994;BME280;56054;50.968;5.816;2024-03-22T14:36:31;100007.19;;;10.00;100.00
68994;BME280;56054;50.968;5.816;2024-03-22T14:39:38;100008.66;;;9.95;100.00
68994;BME280;56054;50.968;5.816;2024-03-22T14:42:45;100009.25;;;9.75;100.00
68994;BME280;56054;50.968;5.816;2024-03-22T14:45:53;100010.34;;;9.95;100.00
68994;BME280;56054;50.968;5.816;2024-03-22T14:49:00;99996.06;;;9.86;100.00
68994;BME280;56054;50.968;5.816;2024-03-22T14:52:08;100004.66;;;10.02;100.00
68994;BME280;56054;50.968;5.816;2024-03-22T14:55:14;100004.91;;;9.90;100.00
68994;BME280;56054;50.968;5.816;2024-03-22T14:58:21;99994.75;;;9.78;100.00
68994;BME280;56054;50.968;5.816;2024-03-22T15:01:28;99988.50;;;9.75;100.00
68994;BME280;56054;50.968;5.816;2024-03-22T15:04:35;99983.53;;;9.63;100.00
68994;BME280;56054;50.968;5.816;2024-03-22T15:07:42;99977.59;;;9.49;100.00
68994;BME280;56054;50.968;5.816;2024-03-22T15:10:50;99985.81;;;9.11;100.00
68994;BME280;56054;50.968;5.816;2024-03-22T15:13:56;99977.88;;;9.08;100.00
68994;BME280;56054;50.968;5.816;2024-03-22T15:17:03;99961.50;;;9.09;100.00
68994;BME280;56054;50.968;5.816;2024-03-22T15:20:11;99963.38;;;9.11;100.00
68994;BME280;56054;50.968;5.816;2024-03-22T15:23:18;99964.69;;;9.34;100.00
68994;BME280;56054;50.968;5.816;2024-03-22T15:26:24;99970.81;;;9.20;100.00
68994;BME280;56054;50.968;5.816;2024-03-22T15:29:31;99965.66;;;9.05;100.00
68994;BME280;56054;50.968;5.816;2024-03-22T15:32:38;99961.25;;;9.04;100.00
68994;BME280;56054;50.968;5.816;2024-03-22T15:35:45;99959.06;;;8.95;100.00
68994;BME280;56054;50.968;5.816;2024-03-22T15:38:52;99953.94;;;8.82;100.00
68994;BME280;56054;50.968;5.816;2024-03-22T15:41:59;99951.97;;;9.08;100.00
68994;BME280;56054;50.968;5.816;2024-03-22T15:45:07;99943.50;;;8.95;100.00
68994;BME280;56054;50.968;5.816;2024-03-22T15:48:13;99939.00;;;9.08;100.00
68994;BME280;56054;50.968;5.816;2024-03-22T15:51:20;99942.97;;;8.86;100.00
68994;BME280;56054;50.968;5.816;2024-03-22T15:54:27;99936.97;;;8.87;100.00
68994;BME280;56054;50.968;5.816;2024-03-22T15:57:34;99938.34;;;8.66;100.00
68994;BME280;56054;50.968;5.816;2024-03-22T16:00:41;99927.91;;;8.64;100.00
68994;BME280;56054;50.968;5.816;2024-03-22T16:03:48;99924.94;;;8.58;100.00
68994;BME280;56054;50.968;5.816;2024-03-22T16:06:55;99928.25;;;8.55;100.00
68994;BME280;56054;50.968;5.816;2024-03-22T16:10:03;99922.47;;;8.45;100.00
68994;BME280;56054;50.968;5.816;2024-03-22T16:13:11;99917.69;;;8.23;100.00
68994;BME280;56054;50.968;5.816;2024-03-22T16:16:25;99910.34;;;8.15;100.00